Athensville, Illinois
Current Conditions -  °F | °C
As of 5:55 AM on Friday 28 Nov 2014 (Local Time) from KIJX Reporting Station
Clear Clear  
Wind Chill:   Ceiling: Unl
Heat Index: 21°   Visibility: 10mi
Dew Point: 16°   Wind: 13mph
Humidity: 82%   Direction: 130°SE
Pressure: 30.25"   Gusts: NA
Location:  39.491°N, 90.2996°W
Report Text: KIJX 281155Z AUTO 13011KT 10SM CLR M06/M09 A3025 RMK AO2 T10601087 11060 21070
Loading
Personal Weather Stations






























Interactive Weather Map New forecast layout! Learn more

10-Day Weather Forecast

Advertisements
Track Severe Weather on mobile